sensor_id;sensor_type;location;lat;lon;timestamp;P1;durP1;ratioP1;P2;durP2;ratioP2
18793;SDS011;29610;49.022;12.114;2023-05-14T00:01:56;14.00;;;8.30;;
18793;SDS011;29610;49.022;12.114;2023-05-14T00:04:44;14.40;;;7.80;;
18793;SDS011;29610;49.022;12.114;2023-05-14T00:07:33;16.63;;;9.37;;
18793;SDS011;29610;49.022;12.114;2023-05-14T00:10:22;27.30;;;9.07;;
18793;SDS011;29610;49.022;12.114;2023-05-14T00:13:11;16.70;;;9.13;;
18793;SDS011;29610;49.022;12.114;2023-05-14T00:16:00;13.67;;;8.23;;
18793;SDS011;29610;49.022;12.114;2023-05-14T00:18:50;15.07;;;8.43;;
18793;SDS011;29610;49.022;12.114;2023-05-14T00:21:39;16.30;;;9.17;;
18793;SDS011;29610;49.022;12.114;2023-05-14T00:24:28;15.33;;;8.77;;
18793;SDS011;29610;49.022;12.114;2023-05-14T00:27:16;27.53;;;9.37;;
18793;SDS011;29610;49.022;12.114;2023-05-14T00:30:07;14.50;;;8.00;;
18793;SDS011;29610;49.022;12.114;2023-05-14T00:32:56;15.27;;;9.30;;
18793;SDS011;29610;49.022;12.114;2023-05-14T00:35:47;17.30;;;9.17;;
18793;SDS011;29610;49.022;12.114;2023-05-14T00:38:35;18.77;;;11.20;;
18793;SDS011;29610;49.022;12.114;2023-05-14T00:41:24;16.90;;;9.77;;
18793;SDS011;29610;49.022;12.114;2023-05-14T00:44:13;17.13;;;9.33;;
18793;SDS011;29610;49.022;12.114;2023-05-14T00:47:02;18.23;;;10.77;;
18793;SDS011;29610;49.022;12.114;2023-05-14T00:49:51;18.50;;;9.80;;
18793;SDS011;29610;49.022;12.114;2023-05-14T00:52:42;16.80;;;9.70;;
18793;SDS011;29610;49.022;12.114;2023-05-14T00:55:31;20.50;;;12.00;;
18793;SDS011;29610;49.022;12.114;2023-05-14T00:58:20;28.83;;;12.10;;
18793;SDS011;29610;49.022;12.114;2023-05-14T01:01:11;25.30;;;11.33;;
18793;SDS011;29610;49.022;12.114;2023-05-14T01:04:01;18.73;;;10.20;;
18793;SDS011;29610;49.022;12.114;2023-05-14T01:06:53;17.93;;;8.90;;
18793;SDS011;29610;49.022;12.114;2023-05-14T01:09:58;16.80;;;9.17;;
18793;SDS011;29610;49.022;12.114;2023-05-14T01:12:57;20.77;;;9.40;;
18793;SDS011;29610;49.022;12.114;2023-05-14T01:15:55;14.87;;;9.07;;
18793;SDS011;29610;49.022;12.114;2023-05-14T01:18:47;13.67;;;7.80;;
18793;SDS011;29610;49.022;12.114;2023-05-14T01:21:41;15.60;;;8.70;;
18793;SDS011;29610;49.022;12.114;2023-05-14T01:24:30;14.30;;;8.43;;
18793;SDS011;29610;49.022;12.114;2023-05-14T01:27:21;16.90;;;8.57;;
18793;SDS011;29610;49.022;12.114;2023-05-14T01:30:20;16.00;;;9.17;;
18793;SDS011;29610;49.022;12.114;2023-05-14T01:33:17;17.33;;;8.57;;
18793;SDS011;29610;49.022;12.114;2023-05-14T01:36:08;12.23;;;7.53;;
18793;SDS011;29610;49.022;12.114;2023-05-14T01:38:59;14.53;;;8.20;;
18793;SDS011;29610;49.022;12.114;2023-05-14T01:41:50;15.60;;;8.50;;
18793;SDS011;29610;49.022;12.114;2023-05-14T01:44:40;13.77;;;7.97;;
18793;SDS011;29610;49.022;12.114;2023-05-14T01:47:29;15.33;;;8.07;;
18793;SDS011;29610;49.022;12.114;2023-05-14T01:50:18;14.20;;;7.90;;
18793;SDS011;29610;49.022;12.114;2023-05-14T01:53:07;13.07;;;7.87;;
18793;SDS011;29610;49.022;12.114;2023-05-14T01:55:58;20.97;;;9.07;;
18793;SDS011;29610;49.022;12.114;2023-05-14T01:58:46;15.13;;;8.30;;
18793;SDS011;29610;49.022;12.114;2023-05-14T02:01:35;24.03;;;7.63;;
18793;SDS011;29610;49.022;12.114;2023-05-14T02:04:24;13.27;;;7.90;;
18793;SDS011;29610;49.022;12.114;2023-05-14T02:07:13;15.03;;;7.93;;
18793;SDS011;29610;49.022;12.114;2023-05-14T02:10:01;13.97;;;7.50;;
18793;SDS011;29610;49.022;12.114;2023-05-14T02:12:52;18.53;;;9.77;;
18793;SDS011;29610;49.022;12.114;2023-05-14T02:15:40;15.00;;;8.33;;
18793;SDS011;29610;49.022;12.114;2023-05-14T02:18:29;17.80;;;8.23;;
18793;SDS011;29610;49.022;12.114;2023-05-14T02:21:18;20.73;;;9.40;;
18793;SDS011;29610;49.022;12.114;2023-05-14T02:24:07;15.40;;;8.80;;
18793;SDS011;29610;49.022;12.114;2023-05-14T02:26:59;16.47;;;8.93;;
18793;SDS011;29610;49.022;12.114;2023-05-14T02:29:49;15.60;;;8.77;;
18793;SDS011;29610;49.022;12.114;2023-05-14T02:32:38;16.40;;;9.67;;
18793;SDS011;29610;49.022;12.114;2023-05-14T02:35:27;20.53;;;8.50;;
18793;SDS011;29610;49.022;12.114;2023-05-14T02:38:15;30.20;;;11.23;;
18793;SDS011;29610;49.022;12.114;2023-05-14T02:41:04;14.30;;;8.87;;
18793;SDS011;29610;49.022;12.114;2023-05-14T02:43:53;15.77;;;8.60;;
18793;SDS011;29610;49.022;12.114;2023-05-14T02:46:43;21.23;;;10.97;;
18793;SDS011;29610;49.022;12.114;2023-05-14T02:49:32;23.07;;;9.73;;
18793;SDS011;29610;49.022;12.114;2023-05-14T02:52:21;18.53;;;10.27;;
18793;SDS011;29610;49.022;12.114;2023-05-14T02:55:10;15.83;;;9.30;;
18793;SDS011;29610;49.022;12.114;2023-05-14T02:57:59;18.07;;;10.73;;
18793;SDS011;29610;49.022;12.114;2023-05-14T03:00:48;16.50;;;9.33;;
18793;SDS011;29610;49.022;12.114;2023-05-14T03:03:38;17.03;;;9.93;;
18793;SDS011;29610;49.022;12.114;2023-05-14T03:06:28;18.70;;;10.00;;
18793;SDS011;29610;49.022;12.114;2023-05-14T03:09:17;23.27;;;11.43;;
18793;SDS011;29610;49.022;12.114;2023-05-14T03:12:06;19.03;;;10.97;;
18793;SDS011;29610;49.022;12.114;2023-05-14T03:14:55;18.43;;;10.10;;
18793;SDS011;29610;49.022;12.114;2023-05-14T03:17:44;18.60;;;10.63;;
18793;SDS011;29610;49.022;12.114;2023-05-14T03:20:34;19.80;;;11.27;;
18793;SDS011;29610;49.022;12.114;2023-05-14T03:23:23;17.10;;;8.90;;
18793;SDS011;29610;49.022;12.114;2023-05-14T03:26:12;18.10;;;10.40;;
18793;SDS011;29610;49.022;12.114;2023-05-14T03:29:01;17.03;;;9.70;;
18793;SDS011;29610;49.022;12.114;2023-05-14T03:31:50;19.03;;;11.10;;
18793;SDS011;29610;49.022;12.114;2023-05-14T03:34:40;19.33;;;10.70;;
18793;SDS011;29610;49.022;12.114;2023-05-14T03:37:32;20.70;;;10.90;;
18793;SDS011;29610;49.022;12.114;2023-05-14T03:40:21;17.53;;;10.20;;
18793;SDS011;29610;49.022;12.114;2023-05-14T03:43:10;20.20;;;11.13;;
18793;SDS011;29610;49.022;12.114;2023-05-14T03:45:59;19.37;;;10.80;;
18793;SDS011;29610;49.022;12.114;2023-05-14T03:48:47;20.63;;;11.40;;
18793;SDS011;29610;49.022;12.114;2023-05-14T03:51:36;20.80;;;12.37;;
18793;SDS011;29610;49.022;12.114;2023-05-14T03:54:26;21.27;;;11.47;;
18793;SDS011;29610;49.022;12.114;2023-05-14T03:57:15;23.13;;;11.93;;
18793;SDS011;29610;49.022;12.114;2023-05-14T04:00:04;20.80;;;11.57;;
18793;SDS011;29610;49.022;12.114;2023-05-14T04:03:02;24.83;;;11.57;;
18793;SDS011;29610;49.022;12.114;2023-05-14T04:05:51;22.03;;;10.77;;
18793;SDS011;29610;49.022;12.114;2023-05-14T04:08:40;23.47;;;12.67;;
18793;SDS011;29610;49.022;12.114;2023-05-14T04:11:30;21.60;;;12.60;;
18793;SDS011;29610;49.022;12.114;2023-05-14T04:14:19;25.97;;;13.07;;
18793;SDS011;29610;49.022;12.114;2023-05-14T04:17:08;23.63;;;13.90;;
18793;SDS011;29610;49.022;12.114;2023-05-14T04:19:59;22.10;;;13.03;;
18793;SDS011;29610;49.022;12.114;2023-05-14T04:22:47;22.57;;;12.80;;
18793;SDS011;29610;49.022;12.114;2023-05-14T04:25:36;22.17;;;12.17;;
18793;SDS011;29610;49.022;12.114;2023-05-14T04:28:26;24.67;;;11.93;;
18793;SDS011;29610;49.022;12.114;2023-05-14T04:31:15;23.00;;;12.10;;
18793;SDS011;29610;49.022;12.114;2023-05-14T04:34:04;19.80;;;11.73;;
18793;SDS011;29610;49.022;12.114;2023-05-14T04:36:53;20.50;;;11.40;;
18793;SDS011;29610;49.022;12.114;2023-05-14T04:39:42;19.00;;;10.27;;
18793;SDS011;29610;49.022;12.114;2023-05-14T04:42:30;22.37;;;10.70;;
18793;SDS011;29610;49.022;12.114;2023-05-14T04:45:21;21.80;;;11.17;;
18793;SDS011;29610;49.022;12.114;2023-05-14T04:48:10;18.87;;;10.83;;
18793;SDS011;29610;49.022;12.114;2023-05-14T04:50:58;20.20;;;10.23;;
18793;SDS011;29610;49.022;12.114;2023-05-14T04:53:47;17.30;;;9.40;;
18793;SDS011;29610;49.022;12.114;2023-05-14T04:56:36;28.50;;;10.97;;
18793;SDS011;29610;49.022;12.114;2023-05-14T04:59:25;19.97;;;10.20;;
18793;SDS011;29610;49.022;12.114;2023-05-14T05:02:15;22.57;;;10.40;;
18793;SDS011;29610;49.022;12.114;2023-05-14T05:05:04;20.67;;;10.13;;
18793;SDS011;29610;49.022;12.114;2023-05-14T05:07:54;17.80;;;9.20;;
18793;SDS011;29610;49.022;12.114;2023-05-14T05:10:43;14.30;;;8.90;;
18793;SDS011;29610;49.022;12.114;2023-05-14T05:13:31;15.67;;;9.43;;
18793;SDS011;29610;49.022;12.114;2023-05-14T05:16:20;16.07;;;8.77;;
18793;SDS011;29610;49.022;12.114;2023-05-14T05:19:10;20.03;;;9.60;;
18793;SDS011;29610;49.022;12.114;2023-05-14T05:22:00;16.73;;;8.90;;
18793;SDS011;29610;49.022;12.114;2023-05-14T05:24:49;14.27;;;6.80;;
18793;SDS011;29610;49.022;12.114;2023-05-14T05:27:38;14.80;;;8.03;;
18793;SDS011;29610;49.022;12.114;2023-05-14T05:30:27;14.70;;;7.83;;
18793;SDS011;29610;49.022;12.114;2023-05-14T05:33:16;17.90;;;8.00;;
18793;SDS011;29610;49.022;12.114;2023-05-14T05:36:07;12.10;;;6.57;;
18793;SDS011;29610;49.022;12.114;2023-05-14T05:38:56;12.43;;;6.80;;
18793;SDS011;29610;49.022;12.114;2023-05-14T05:41:45;15.10;;;8.07;;
18793;SDS011;29610;49.022;12.114;2023-05-14T05:44:33;16.07;;;8.27;;
18793;SDS011;29610;49.022;12.114;2023-05-14T05:47:22;13.67;;;7.23;;
18793;SDS011;29610;49.022;12.114;2023-05-14T05:50:11;13.30;;;6.37;;
18793;SDS011;29610;49.022;12.114;2023-05-14T05:53:02;14.53;;;7.27;;
18793;SDS011;29610;49.022;12.114;2023-05-14T05:55:51;14.03;;;6.23;;
18793;SDS011;29610;49.022;12.114;2023-05-14T05:58:40;12.10;;;5.80;;
18793;SDS011;29610;49.022;12.114;2023-05-14T06:01:29;11.60;;;6.00;;
18793;SDS011;29610;49.022;12.114;2023-05-14T06:04:17;11.70;;;5.73;;
18793;SDS011;29610;49.022;12.114;2023-05-14T06:07:06;14.63;;;6.73;;
18793;SDS011;29610;49.022;12.114;2023-05-14T06:09:56;13.87;;;6.70;;
18793;SDS011;29610;49.022;12.114;2023-05-14T06:12:45;12.10;;;5.40;;
18793;SDS011;29610;49.022;12.114;2023-05-14T06:15:34;12.47;;;5.80;;
18793;SDS011;29610;49.022;12.114;2023-05-14T06:18:23;14.00;;;6.33;;
18793;SDS011;29610;49.022;12.114;2023-05-14T06:21:12;11.40;;;5.77;;
18793;SDS011;29610;49.022;12.114;2023-05-14T06:24:00;12.37;;;6.00;;
18793;SDS011;29610;49.022;12.114;2023-05-14T06:26:51;9.07;;;4.47;;
18793;SDS011;29610;49.022;12.114;2023-05-14T06:29:40;14.20;;;4.90;;
18793;SDS011;29610;49.022;12.114;2023-05-14T06:32:29;11.63;;;4.80;;
18793;SDS011;29610;49.022;12.114;2023-05-14T06:35:18;11.40;;;5.40;;
18793;SDS011;29610;49.022;12.114;2023-05-14T06:38:06;9.37;;;4.47;;
18793;SDS011;29610;49.022;12.114;2023-05-14T06:40:55;9.80;;;4.93;;
18793;SDS011;29610;49.022;12.114;2023-05-14T06:43:45;13.37;;;5.00;;
18793;SDS011;29610;49.022;12.114;2023-05-14T06:46:34;9.97;;;5.10;;
18793;SDS011;29610;49.022;12.114;2023-05-14T06:49:23;10.70;;;5.07;;
18793;SDS011;29610;49.022;12.114;2023-05-14T06:52:12;10.60;;;4.23;;
18793;SDS011;29610;49.022;12.114;2023-05-14T06:55:01;9.23;;;4.10;;
18793;SDS011;29610;49.022;12.114;2023-05-14T06:57:50;11.23;;;4.43;;
18793;SDS011;29610;49.022;12.114;2023-05-14T07:00:41;10.33;;;4.80;;
18793;SDS011;29610;49.022;12.114;2023-05-14T07:03:30;10.43;;;4.57;;
18793;SDS011;29610;49.022;12.114;2023-05-14T07:06:19;9.10;;;3.97;;
18793;SDS011;29610;49.022;12.114;2023-05-14T07:09:08;10.47;;;4.37;;
18793;SDS011;29610;49.022;12.114;2023-05-14T07:11:57;10.97;;;4.37;;
18793;SDS011;29610;49.022;12.114;2023-05-14T07:14:46;9.40;;;4.10;;
18793;SDS011;29610;49.022;12.114;2023-05-14T07:17:36;10.33;;;2.80;;
18793;SDS011;29610;49.022;12.114;2023-05-14T07:20:25;7.30;;;2.50;;
18793;SDS011;29610;49.022;12.114;2023-05-14T07:23:14;6.70;;;2.20;;
18793;SDS011;29610;49.022;12.114;2023-05-14T07:26:06;7.07;;;2.10;;
18793;SDS011;29610;49.022;12.114;2023-05-14T07:28:56;7.27;;;2.30;;
18793;SDS011;29610;49.022;12.114;2023-05-14T07:31:45;7.77;;;2.50;;
18793;SDS011;29610;49.022;12.114;2023-05-14T07:34:36;7.40;;;2.30;;
18793;SDS011;29610;49.022;12.114;2023-05-14T07:37:25;11.43;;;4.47;;
18793;SDS011;29610;49.022;12.114;2023-05-14T07:40:14;7.93;;;2.43;;
18793;SDS011;29610;49.022;12.114;2023-05-14T07:43:03;8.07;;;2.30;;
18793;SDS011;29610;49.022;12.114;2023-05-14T07:45:51;7.47;;;2.10;;
18793;SDS011;29610;49.022;12.114;2023-05-14T07:48:41;7.03;;;2.00;;
18793;SDS011;29610;49.022;12.114;2023-05-14T07:51:31;6.67;;;2.10;;
18793;SDS011;29610;49.022;12.114;2023-05-14T07:54:20;7.40;;;1.87;;
18793;SDS011;29610;49.022;12.114;2023-05-14T07:57:09;8.57;;;2.10;;
18793;SDS011;29610;49.022;12.114;2023-05-14T07:59:58;6.90;;;2.33;;
18793;SDS011;29610;49.022;12.114;2023-05-14T08:02:46;8.10;;;2.50;;
18793;SDS011;29610;49.022;12.114;2023-05-14T08:05:36;8.30;;;2.20;;
18793;SDS011;29610;49.022;12.114;2023-05-14T08:08:26;7.27;;;2.10;;
18793;SDS011;29610;49.022;12.114;2023-05-14T08:11:15;8.30;;;2.20;;
18793;SDS011;29610;49.022;12.114;2023-05-14T08:14:06;7.60;;;2.40;;
18793;SDS011;29610;49.022;12.114;2023-05-14T08:16:55;10.83;;;2.10;;
18793;SDS011;29610;49.022;12.114;2023-05-14T08:19:44;7.13;;;2.10;;
18793;SDS011;29610;49.022;12.114;2023-05-14T08:22:33;9.30;;;2.40;;
18793;SDS011;29610;49.022;12.114;2023-05-14T08:25:23;8.00;;;2.50;;
18793;SDS011;29610;49.022;12.114;2023-05-14T08:28:12;8.03;;;2.50;;
18793;SDS011;29610;49.022;12.114;2023-05-14T08:31:01;7.57;;;2.33;;
18793;SDS011;29610;49.022;12.114;2023-05-14T08:33:49;8.00;;;2.60;;
18793;SDS011;29610;49.022;12.114;2023-05-14T08:36:39;6.73;;;1.80;;
18793;SDS011;29610;49.022;12.114;2023-05-14T08:39:28;8.20;;;2.10;;
18793;SDS011;29610;49.022;12.114;2023-05-14T08:42:19;7.60;;;2.00;;
18793;SDS011;29610;49.022;12.114;2023-05-14T08:45:12;6.70;;;1.63;;
18793;SDS011;29610;49.022;12.114;2023-05-14T08:48:08;7.67;;;2.67;;
18793;SDS011;29610;49.022;12.114;2023-05-14T08:51:02;6.97;;;1.93;;
18793;SDS011;29610;49.022;12.114;2023-05-14T08:53:51;9.10;;;2.77;;
18793;SDS011;29610;49.022;12.114;2023-05-14T08:56:40;7.10;;;1.90;;
18793;SDS011;29610;49.022;12.114;2023-05-14T08:59:32;9.40;;;2.20;;
18793;SDS011;29610;49.022;12.114;2023-05-14T09:02:22;7.93;;;2.30;;
18793;SDS011;29610;49.022;12.114;2023-05-14T09:05:14;8.33;;;2.60;;
18793;SDS011;29610;49.022;12.114;2023-05-14T09:08:06;8.40;;;2.63;;
18793;SDS011;29610;49.022;12.114;2023-05-14T09:10:55;8.20;;;2.60;;
18793;SDS011;29610;49.022;12.114;2023-05-14T09:13:44;7.50;;;1.90;;
18793;SDS011;29610;49.022;12.114;2023-05-14T09:16:34;7.20;;;2.10;;
18793;SDS011;29610;49.022;12.114;2023-05-14T09:19:23;7.47;;;2.17;;
18793;SDS011;29610;49.022;12.114;2023-05-14T09:22:14;7.30;;;1.93;;
18793;SDS011;29610;49.022;12.114;2023-05-14T09:25:05;7.33;;;2.13;;
18793;SDS011;29610;49.022;12.114;2023-05-14T09:27:57;7.40;;;1.83;;
18793;SDS011;29610;49.022;12.114;2023-05-14T09:30:49;7.60;;;2.37;;
18793;SDS011;29610;49.022;12.114;2023-05-14T09:33:39;8.30;;;2.50;;
18793;SDS011;29610;49.022;12.114;2023-05-14T09:36:28;8.73;;;2.43;;
18793;SDS011;29610;49.022;12.114;2023-05-14T09:39:17;9.03;;;2.77;;
18793;SDS011;29610;49.022;12.114;2023-05-14T09:42:06;16.63;;;2.57;;
18793;SDS011;29610;49.022;12.114;2023-05-14T09:44:55;7.80;;;2.13;;
18793;SDS011;29610;49.022;12.114;2023-05-14T09:47:45;7.50;;;2.30;;
18793;SDS011;29610;49.022;12.114;2023-05-14T09:50:37;7.47;;;2.43;;
18793;SDS011;29610;49.022;12.114;2023-05-14T09:53:29;7.93;;;2.40;;
18793;SDS011;29610;49.022;12.114;2023-05-14T09:56:19;7.33;;;2.60;;
18793;SDS011;29610;49.022;12.114;2023-05-14T09:59:10;8.20;;;2.60;;
18793;SDS011;29610;49.022;12.114;2023-05-14T10:02:00;8.17;;;2.77;;
18793;SDS011;29610;49.022;12.114;2023-05-14T10:04:52;7.73;;;2.37;;
18793;SDS011;29610;49.022;12.114;2023-05-14T10:07:45;8.57;;;2.80;;
18793;SDS011;29610;49.022;12.114;2023-05-14T10:10:36;7.37;;;2.27;;
18793;SDS011;29610;49.022;12.114;2023-05-14T10:13:27;9.50;;;2.97;;
18793;SDS011;29610;49.022;12.114;2023-05-14T10:16:26;8.20;;;2.53;;
18793;SDS011;29610;49.022;12.114;2023-05-14T10:19:22;8.03;;;2.83;;
18793;SDS011;29610;49.022;12.114;2023-05-14T10:22:12;7.97;;;2.73;;
18793;SDS011;29610;49.022;12.114;2023-05-14T10:25:07;11.20;;;4.57;;
18793;SDS011;29610;49.022;12.114;2023-05-14T10:27:57;9.53;;;2.70;;
18793;SDS011;29610;49.022;12.114;2023-05-14T10:30:48;11.83;;;4.30;;
18793;SDS011;29610;49.022;12.114;2023-05-14T10:33:45;16.80;;;7.30;;
18793;SDS011;29610;49.022;12.114;2023-05-14T10:36:35;11.30;;;5.10;;
18793;SDS011;29610;49.022;12.114;2023-05-14T10:39:39;20.33;;;5.00;;
18793;SDS011;29610;49.022;12.114;2023-05-14T10:42:32;8.10;;;2.77;;
18793;SDS011;29610;49.022;12.114;2023-05-14T10:45:23;13.60;;;3.10;;
18793;SDS011;29610;49.022;12.114;2023-05-14T10:48:13;20.77;;;10.63;;
18793;SDS011;29610;49.022;12.114;2023-05-14T10:51:02;9.13;;;3.03;;
18793;SDS011;29610;49.022;12.114;2023-05-14T10:53:54;8.07;;;3.20;;
18793;SDS011;29610;49.022;12.114;2023-05-14T10:56:44;10.70;;;3.90;;
18793;SDS011;29610;49.022;12.114;2023-05-14T10:59:34;8.27;;;3.20;;
18793;SDS011;29610;49.022;12.114;2023-05-14T11:02:24;8.47;;;2.80;;
18793;SDS011;29610;49.022;12.114;2023-05-14T11:05:17;10.07;;;2.70;;
18793;SDS011;29610;49.022;12.114;2023-05-14T11:08:05;8.03;;;2.70;;
18793;SDS011;29610;49.022;12.114;2023-05-14T11:10:56;8.40;;;2.70;;
18793;SDS011;29610;49.022;12.114;2023-05-14T11:13:45;8.60;;;2.83;;
18793;SDS011;29610;49.022;12.114;2023-05-14T11:16:36;7.50;;;2.67;;
18793;SDS011;29610;49.022;12.114;2023-05-14T11:19:25;8.40;;;2.77;;
18793;SDS011;29610;49.022;12.114;2023-05-14T11:22:14;8.93;;;2.67;;
18793;SDS011;29610;49.022;12.114;2023-05-14T11:25:03;7.67;;;2.90;;
18793;SDS011;29610;49.022;12.114;2023-05-14T11:27:53;11.23;;;3.07;;
18793;SDS011;29610;49.022;12.114;2023-05-14T11:30:44;7.50;;;2.50;;
18793;SDS011;29610;49.022;12.114;2023-05-14T11:33:34;8.83;;;3.07;;
18793;SDS011;29610;49.022;12.114;2023-05-14T11:36:23;7.37;;;2.40;;
18793;SDS011;29610;49.022;12.114;2023-05-14T11:39:16;8.07;;;2.47;;
18793;SDS011;29610;49.022;12.114;2023-05-14T11:42:08;8.33;;;3.00;;
18793;SDS011;29610;49.022;12.114;2023-05-14T11:45:00;7.90;;;2.97;;
18793;SDS011;29610;49.022;12.114;2023-05-14T11:47:49;7.67;;;2.63;;
18793;SDS011;29610;49.022;12.114;2023-05-14T11:50:45;9.27;;;3.03;;
18793;SDS011;29610;49.022;12.114;2023-05-14T11:53:35;7.70;;;2.70;;
18793;SDS011;29610;49.022;12.114;2023-05-14T11:56:24;7.40;;;2.47;;
18793;SDS011;29610;49.022;12.114;2023-05-14T11:59:13;8.40;;;2.80;;
18793;SDS011;29610;49.022;12.114;2023-05-14T12:02:07;8.10;;;2.50;;
18793;SDS011;29610;49.022;12.114;2023-05-14T12:05:00;9.43;;;2.83;;
18793;SDS011;29610;49.022;12.114;2023-05-14T12:07:51;9.90;;;3.23;;
18793;SDS011;29610;49.022;12.114;2023-05-14T12:10:41;8.90;;;3.17;;
18793;SDS011;29610;49.022;12.114;2023-05-14T12:13:31;8.57;;;3.37;;
18793;SDS011;29610;49.022;12.114;2023-05-14T12:16:20;7.87;;;2.80;;
18793;SDS011;29610;49.022;12.114;2023-05-14T12:19:09;9.10;;;3.10;;
18793;SDS011;29610;49.022;12.114;2023-05-14T12:22:01;8.03;;;3.10;;
18793;SDS011;29610;49.022;12.114;2023-05-14T12:24:55;8.83;;;3.00;;
18793;SDS011;29610;49.022;12.114;2023-05-14T12:27:45;7.37;;;2.60;;
18793;SDS011;29610;49.022;12.114;2023-05-14T12:30:36;8.20;;;2.83;;
18793;SDS011;29610;49.022;12.114;2023-05-14T12:33:25;8.40;;;2.70;;
18793;SDS011;29610;49.022;12.114;2023-05-14T12:36:14;7.77;;;2.47;;
18793;SDS011;29610;49.022;12.114;2023-05-14T12:39:07;7.50;;;2.90;;
18793;SDS011;29610;49.022;12.114;2023-05-14T12:41:59;10.03;;;2.50;;
18793;SDS011;29610;49.022;12.114;2023-05-14T12:44:48;10.00;;;2.90;;
18793;SDS011;29610;49.022;12.114;2023-05-14T12:47:37;7.93;;;2.70;;
18793;SDS011;29610;49.022;12.114;2023-05-14T12:50:28;8.37;;;2.90;;
18793;SDS011;29610;49.022;12.114;2023-05-14T12:53:17;8.40;;;2.87;;
18793;SDS011;29610;49.022;12.114;2023-05-14T12:56:06;8.70;;;3.40;;
18793;SDS011;29610;49.022;12.114;2023-05-14T12:58:57;8.53;;;3.40;;
18793;SDS011;29610;49.022;12.114;2023-05-14T13:01:46;7.90;;;2.90;;
18793;SDS011;29610;49.022;12.114;2023-05-14T13:04:35;8.00;;;3.00;;
18793;SDS011;29610;49.022;12.114;2023-05-14T13:07:24;7.93;;;3.10;;
18793;SDS011;29610;49.022;12.114;2023-05-14T13:10:13;7.60;;;2.67;;
18793;SDS011;29610;49.022;12.114;2023-05-14T13:13:04;9.10;;;4.10;;
18793;SDS011;29610;49.022;12.114;2023-05-14T13:15:54;8.73;;;3.53;;
18793;SDS011;29610;49.022;12.114;2023-05-14T13:18:43;9.90;;;3.27;;
18793;SDS011;29610;49.022;12.114;2023-05-14T13:21:32;9.13;;;3.73;;
18793;SDS011;29610;49.022;12.114;2023-05-14T13:24:21;10.30;;;4.50;;
18793;SDS011;29610;49.022;12.114;2023-05-14T13:27:10;15.93;;;5.97;;
18793;SDS011;29610;49.022;12.114;2023-05-14T13:29:59;16.07;;;6.00;;
18793;SDS011;29610;49.022;12.114;2023-05-14T13:32:49;10.97;;;5.27;;
18793;SDS011;29610;49.022;12.114;2023-05-14T13:35:39;15.37;;;6.77;;
18793;SDS011;29610;49.022;12.114;2023-05-14T13:38:27;12.10;;;5.30;;
18793;SDS011;29610;49.022;12.114;2023-05-14T13:41:16;13.30;;;7.00;;
18793;SDS011;29610;49.022;12.114;2023-05-14T13:44:05;12.67;;;7.10;;
18793;SDS011;29610;49.022;12.114;2023-05-14T13:46:54;12.90;;;6.60;;
18793;SDS011;29610;49.022;12.114;2023-05-14T13:49:44;13.40;;;7.40;;
18793;SDS011;29610;49.022;12.114;2023-05-14T13:52:33;20.07;;;8.23;;
18793;SDS011;29610;49.022;12.114;2023-05-14T13:55:22;10.77;;;4.10;;
18793;SDS011;29610;49.022;12.114;2023-05-14T13:58:11;9.63;;;3.83;;
18793;SDS011;29610;49.022;12.114;2023-05-14T14:01:00;10.17;;;3.10;;
18793;SDS011;29610;49.022;12.114;2023-05-14T14:03:49;9.73;;;3.27;;
18793;SDS011;29610;49.022;12.114;2023-05-14T14:06:39;8.40;;;3.30;;
18793;SDS011;29610;49.022;12.114;2023-05-14T14:09:28;9.20;;;4.00;;
18793;SDS011;29610;49.022;12.114;2023-05-14T14:12:20;11.47;;;3.63;;
18793;SDS011;29610;49.022;12.114;2023-05-14T14:15:10;12.73;;;3.70;;
18793;SDS011;29610;49.022;12.114;2023-05-14T14:17:59;7.97;;;3.00;;
18793;SDS011;29610;49.022;12.114;2023-05-14T14:20:48;6.83;;;2.00;;
18793;SDS011;29610;49.022;12.114;2023-05-14T14:23:38;7.90;;;2.60;;
18793;SDS011;29610;49.022;12.114;2023-05-14T14:26:27;9.83;;;3.03;;
18793;SDS011;29610;49.022;12.114;2023-05-14T14:29:16;10.50;;;3.60;;
18793;SDS011;29610;49.022;12.114;2023-05-14T14:32:06;9.40;;;2.80;;
18793;SDS011;29610;49.022;12.114;2023-05-14T14:34:55;7.00;;;2.20;;
18793;SDS011;29610;49.022;12.114;2023-05-14T14:37:44;8.53;;;2.87;;
18793;SDS011;29610;49.022;12.114;2023-05-14T14:40:37;7.60;;;3.07;;
18793;SDS011;29610;49.022;12.114;2023-05-14T14:43:26;8.50;;;2.30;;
18793;SDS011;29610;49.022;12.114;2023-05-14T14:46:15;10.13;;;2.90;;
18793;SDS011;29610;49.022;12.114;2023-05-14T14:49:04;10.50;;;2.40;;
18793;SDS011;29610;49.022;12.114;2023-05-14T14:51:53;8.97;;;3.80;;
18793;SDS011;29610;49.022;12.114;2023-05-14T14:54:42;7.80;;;2.47;;
18793;SDS011;29610;49.022;12.114;2023-05-14T14:57:32;6.50;;;2.10;;
18793;SDS011;29610;49.022;12.114;2023-05-14T15:00:21;6.70;;;2.10;;
18793;SDS011;29610;49.022;12.114;2023-05-14T15:03:10;8.73;;;2.37;;
18793;SDS011;29610;49.022;12.114;2023-05-14T15:06:00;6.43;;;2.00;;
18793;SDS011;29610;49.022;12.114;2023-05-14T15:08:49;6.37;;;1.93;;
18793;SDS011;29610;49.022;12.114;2023-05-14T15:11:38;13.43;;;1.90;;
18793;SDS011;29610;49.022;12.114;2023-05-14T15:14:29;9.30;;;2.13;;
18793;SDS011;29610;49.022;12.114;2023-05-14T15:17:18;6.50;;;1.63;;
18793;SDS011;29610;49.022;12.114;2023-05-14T15:20:08;7.67;;;1.60;;
18793;SDS011;29610;49.022;12.114;2023-05-14T15:22:58;5.97;;;1.67;;
18793;SDS011;29610;49.022;12.114;2023-05-14T15:25:47;6.10;;;1.70;;
18793;SDS011;29610;49.022;12.114;2023-05-14T15:28:36;8.30;;;1.87;;
18793;SDS011;29610;49.022;12.114;2023-05-14T15:31:26;6.23;;;1.90;;
18793;SDS011;29610;49.022;12.114;2023-05-14T15:34:15;6.73;;;2.23;;
18793;SDS011;29610;49.022;12.114;2023-05-14T15:37:04;6.23;;;1.70;;
18793;SDS011;29610;49.022;12.114;2023-05-14T15:39:52;8.30;;;3.10;;
18793;SDS011;29610;49.022;12.114;2023-05-14T15:42:42;11.80;;;5.43;;
18793;SDS011;29610;49.022;12.114;2023-05-14T15:45:32;14.63;;;2.57;;
18793;SDS011;29610;49.022;12.114;2023-05-14T15:48:22;7.80;;;2.87;;
18793;SDS011;29610;49.022;12.114;2023-05-14T15:51:11;6.73;;;2.20;;
18793;SDS011;29610;49.022;12.114;2023-05-14T15:54:01;7.77;;;2.60;;
18793;SDS011;29610;49.022;12.114;2023-05-14T15:56:50;7.73;;;2.90;;
18793;SDS011;29610;49.022;12.114;2023-05-14T15:59:39;7.13;;;2.20;;
18793;SDS011;29610;49.022;12.114;2023-05-14T16:02:28;9.20;;;2.47;;
18793;SDS011;29610;49.022;12.114;2023-05-14T16:05:20;6.60;;;1.90;;
18793;SDS011;29610;49.022;12.114;2023-05-14T16:08:11;9.17;;;2.30;;
18793;SDS011;29610;49.022;12.114;2023-05-14T16:11:00;8.77;;;1.97;;
18793;SDS011;29610;49.022;12.114;2023-05-14T16:13:49;6.93;;;2.00;;
18793;SDS011;29610;49.022;12.114;2023-05-14T16:16:38;23.80;;;19.23;;
18793;SDS011;29610;49.022;12.114;2023-05-14T16:19:27;7.03;;;2.33;;
18793;SDS011;29610;49.022;12.114;2023-05-14T16:22:17;12.10;;;10.00;;
18793;SDS011;29610;49.022;12.114;2023-05-14T16:25:06;10.40;;;4.40;;
18793;SDS011;29610;49.022;12.114;2023-05-14T16:27:56;7.67;;;3.53;;
18793;SDS011;29610;49.022;12.114;2023-05-14T16:30:45;7.03;;;2.50;;
18793;SDS011;29610;49.022;12.114;2023-05-14T16:33:34;10.80;;;6.03;;
18793;SDS011;29610;49.022;12.114;2023-05-14T16:36:23;6.50;;;2.33;;
18793;SDS011;29610;49.022;12.114;2023-05-14T16:39:13;6.40;;;1.90;;